Flight Track Log - Related Links

Times and Time Zones

All times are in EDT time to prevent confusion due to time zone crossing. See the N667CD flight status page for this flight to view local times or setup timezone preferences in your user account.

Time Position Orientation Groundspeed Altitude Reporting Facility
EDT Latitude Longitude Course Direction KTS MPH feet Rate Location/Type
Thu 06:00:00 PM 26.8751 -80.2459 323° Northwest  Level FlightAware Approximate
Thu 06:01:00 PM 26.9095 -80.2738 326° Northwest  Level FlightAware Approximate
Thu 06:02:00 PM 26.9447 -80.3002 326° Northwest  Level FlightAware Approximate
Thu 06:02:03 PM 26.9336 -80.2189 320° Northwest 143 165 5,200  Level Miami Center
Thu 06:03:00 PM 26.9799 -80.3269 325° Northwest  Level FlightAware Approximate
Thu 06:03:03 PM 26.9581 -80.2475 314° West 148 170 6,000  Level Miami Center
Thu 06:04:00 PM 27.0148 -80.3540 325° Northwest  Level FlightAware Approximate
Thu 06:04:03 PM 26.9864 -80.2786 316° Northwest 143 165 6,800  Level Miami Center
Thu 06:05:00 PM 27.0497 -80.3812 325° Northwest  Level FlightAware Approximate
Thu 06:05:03 PM 27.0150 -80.3097 316° Northwest 143 165 7,600  Level Miami Center
Thu 06:06:00 PM 27.0846 -80.4083 325° Northwest  Level FlightAware Approximate
Thu 06:06:03 PM 27.0372 -80.3383 311° West 143 165 7,900  Level Miami Center
Thu 06:07:03 PM 27.0617 -80.3625 319° Northwest 143 165 9,000 550 Climbing Miami Center
Thu 06:08:03 PM 27.0942 -80.4008 314° West 167 192 9,000  Level Miami Center
Thu 06:09:03 PM 27.1247 -80.4344 316° Northwest 160 184 9,000  Level Miami Center
Thu 06:10:03 PM 27.1592 -80.4728 315° West 155 178 9,000  Level Miami Center
Thu 06:11:03 PM 27.2008 -80.4811 350° North 141 162 9,000  Level Miami Center
Thu 06:12:03 PM 27.2422 -80.4894 350° North 146 168 9,000 -50 Level Miami Center
Thu 06:13:03 PM 27.2797 -80.4953 352° North 146 168 8,900  Descending Miami Center
Thu 06:14:03 PM 27.3233 -80.5036 350° North 146 168 9,000  Climbing Miami Center
Thu 06:15:03 PM 27.3650 -80.5097 353° North 146 168 8,900  Descending Miami Center
Thu 06:16:03 PM 27.4044 -80.5156 353° North 146 168 9,000  Climbing Miami Center
Thu 06:17:03 PM 27.4439 -80.5239 349° North 146 168 8,900  Descending Miami Center
Thu 06:18:03 PM 27.4836 -80.5297 353° North 146 168 9,000  Climbing Miami Center
Thu 06:19:03 PM 27.5292 -80.5358 353° North 146 168 8,900  Descending Miami Center
Thu 06:20:03 PM 27.5708 -80.5442 350° North 146 168 9,000 50 Climbing Miami Center
Thu 06:21:03 PM 27.6125 -80.5503 353° North 146 168 9,000 -50 Level Miami Center
Thu 06:22:03 PM 27.6497 -80.5586 349° North 146 168 8,900  Descending Miami Center
Thu 06:23:03 PM 27.6914 -80.5669 350° North 146 168 9,000 50 Climbing Miami Center
Thu 06:24:03 PM 27.7350 -80.5731 353° North 146 168 9,000  Level Miami Center
Thu 06:25:03 PM 27.7744 -80.5789 353° North 146 168 9,000  Level Miami Center
Thu 06:26:03 PM 27.8119 -80.5872 349° North 146 168 9,000  Level Miami Center
Thu 06:27:03 PM 27.8514 -80.5933 352° North 146 168 9,000  Level Miami Center
Thu 06:28:03 PM 27.8950 -80.6017 350° North 146 168 9,000 -50 Level Miami Center
Thu 06:29:03 PM 27.9367 -80.6078 353° North 146 168 8,900  Descending Miami Center
Thu 06:30:56 PM 28.0167 -80.6167 354° North 147 169 9,000  Climbing Orlando TRACON
Thu 06:32:02 PM 28.0667 -80.6333 344° North 147 169 8,900  Descending Orlando TRACON
Thu 06:33:02 PM 28.1000 -80.6333 360° North 146 168 9,000  Climbing Orlando TRACON
Thu 06:33:56 PM 28.1333 -80.6500 336° Northwest 146 168 8,900  Descending Orlando TRACON
Thu 06:34:56 PM 28.1667 -80.6667 336° Northwest 147 169 9,000  Climbing Orlando TRACON
Thu 06:35:56 PM 28.2167 -80.6833 344° North 146 168 8,900  Descending Orlando TRACON
Thu 06:36:56 PM 28.2500 -80.6833 360° North 147 169 9,000 50 Climbing Orlando TRACON
Thu 06:37:56 PM 28.2833 -80.7000 336° Northwest 146 168 9,000  Level Orlando TRACON
Thu 06:39:02 PM 28.3333 -80.7167 344° North 147 169 9,000  Level Orlando TRACON
Thu 06:41:03 PM 28.4000 -80.7500 336° Northwest 149 171 9,000  Level Orlando TRACON
Thu 06:41:57 PM 28.4500 -80.7667 344° North 151 174 9,000  Level Orlando TRACON
Thu 06:42:57 PM 28.4833 -80.7833 336° Northwest 149 171 9,000  Level Orlando TRACON
Thu 06:44:03 PM 28.5333 -80.8000 344° North 146 168 9,000  Level Orlando TRACON
Thu 06:44:57 PM 28.5667 -80.8167 336° Northwest 145 167 9,000  Level Orlando TRACON
Thu 06:46:03 PM 28.6000 -80.8333 336° Northwest 148 170 9,000  Level Orlando TRACON
Thu 06:46:57 PM 28.6333 -80.8500 336° Northwest 148 170 9,000 -53 Level Orlando TRACON
Thu 06:47:57 PM 28.6833 -80.8667 344° North 147 169 8,900  Descending Orlando TRACON
Thu 06:50:05 PM 28.7583 -80.8961 341° North 147 169 9,000 32 Climbing Jacksonville Center
Thu 06:51:06 PM 28.7961 -80.9144 337° Northwest 150 173 9,000  Level Jacksonville Center
Thu 06:52:07 PM 28.8383 -80.9300 342° North 150 173 9,000  Level Jacksonville Center
Thu 06:53:08 PM 28.8803 -80.9458 342° North 151 174 9,000  Level Jacksonville Center
Thu 06:54:09 PM 28.9200 -80.9642 338° Northwest 150 173 9,000  Level Jacksonville Center
Thu 06:55:09 PM 28.9600 -80.9775 344° North 150 173 9,000  Level Jacksonville Center
Thu 06:56:10 PM 29.0000 -80.9933 341° North 153 176 9,000  Level Jacksonville Center
Thu 06:57:11 PM 29.0419 -81.0117 339° North 154 177 9,000  Level Jacksonville Center
Thu 06:58:12 PM 29.0839 -81.0275 342° North 156 180 9,000  Level Jacksonville Center
Thu 06:59:13 PM 29.1236 -81.0433 341° North 154 177 9,000 -103 Level Jacksonville Center
Thu 07:00:08 PM 29.1594 -81.0569 342° North 156 180 8,800 -224 Descending Jacksonville Center
Thu 07:01:27 PM 29.2183 -81.0819 340° North 166 191 8,500 -257 Descending Jacksonville Center
Thu 07:02:28 PM 29.2603 -81.0978 342° North 168 193 8,200 -295 Descending Jacksonville Center
Thu 07:03:29 PM 29.3083 -81.1161 342° North 165 190 7,900 -298 Descending Jacksonville Center
Thu 07:04:29 PM 29.3506 -81.1342 340° North 166 191 7,600 -298 Descending Jacksonville Center
Thu 07:05:30 PM 29.3967 -81.1503 343° North 167 192 7,300 -310 Descending Jacksonville Center
Thu 07:06:25 PM 29.4364 -81.1639 343° North 167 192 7,000 -310 Descending Jacksonville Center
Thu 07:07:26 PM 29.4806 -81.1844 338° Northwest 168 193 6,700 -310 Descending Jacksonville Center
Thu 07:08:21 PM 29.5225 -81.2006 342° North 167 192 6,400 -295 Descending Jacksonville Center
Thu 07:09:28 PM 29.5708 -81.2186 342° North 168 193 6,100 -281 Descending Jacksonville Center
Thu 07:10:29 PM 29.6169 -81.2369 341° North 168 193 5,800 -295 Descending Jacksonville Center
Thu 07:11:30 PM 29.6589 -81.2531 342° North 168 193 5,500 -347 Descending Jacksonville Center
Thu 07:12:30 PM 29.7050 -81.2689 343° North 167 192 5,100 -261 Descending Jacksonville Center
Thu 07:13:25 PM 29.7428 -81.2875 337° Northwest 166 191 5,000 -52 Descending Jacksonville Center
Thu 07:14:26 PM 29.7889 -81.3036 343° North 161 185 5,000  Level Jacksonville Center
Thu 07:15:33 PM 29.8331 -81.3219 340° North 152 175 5,000  Level Jacksonville Center
Thu 07:16:34 PM 29.8750 -81.3381 342° North 154 177 5,000  Level Jacksonville Center
Thu 07:17:35 PM 29.9169 -81.3517 344° North 155 178 5,000 -197 Level Jacksonville Center
Thu 07:18:36 PM 29.9589 -81.3703 339° North 165 190 4,600 -466 Descending Jacksonville Center
Thu 07:19:31 PM 30.0028 -81.3864 342° North 176 203 4,100 -517 Descending Jacksonville Center
Thu 07:20:32 PM 30.0469 -81.4047 340° North 176 203 3,600 -492 Descending Jacksonville Center
Thu 07:21:33 PM 30.0972 -81.4208 345° North 178 205 3,100 -541 Descending Jacksonville Center
Thu 07:22:34 PM 30.1456 -81.4394 342° North 174 200 2,500 -639 Descending Jacksonville Center
Thu 07:23:35 PM 30.1917 -81.4556 343° North 179 206 1,800 -590 Descending Jacksonville Center
Thu 07:24:36 PM 30.2417 -81.4619 354° North 182 209 1,300 -393 Descending Jacksonville Center
Thu 07:25:37 PM 30.2942 -81.4708 352° North 179 206 1,000 -197 Descending Jacksonville Center
Thu 07:26:38 PM 30.3256 -81.4800 346° North 105 121 900 -246 Descending Jacksonville Center
Thu 07:27:39 PM 30.3444 -81.4964 323° Northwest 81 93 500 -295 Descending Jacksonville Center
Thu 07:28:40 PM 30.3383 -81.5086 240° Southwest 90 104 300 -103 Descending Jacksonville Center
Thu 07:29:35 PM 30.3383 -81.5086 344° North 90 104 300  Level Jacksonville Center

Login

Don't have an account? Register now (free) for customized features, flight alerts, and more!